Wichita Mid Continent Airport
KICT : rendu visible

Aérodrome :











RETROUVEZ-NOUS SUR...

 
LOGIN :

S'inscrire | Disclaimer

   EN    FR    IT 

 









Légende :    VFR   VFR Marginal   IFR   IFR Intensif   IFR Très Intensif
Visi : 
Plafond : 
>= 8 km
>= 3000ft
5 à 8 km
1000 à 3000 ft
1500m à 5 km
500 à 1000 ft
800 à 1500m
200 à 500 ft
< 800m
< 200 ft
Symboles :   Orages  Brouillard  Fortes neiges  Fortes précipitations  Vent > 20 kt







- Altitude de l'aérodrome : 1333 ft
- Code IATA : ICT


KICT - Wichita Mid Continent

DERNIER METAR :
  • 020853Z 15010KT 10SM -RA OVC110 23/21 A2993 RMK AO2 RAB37 SLP122 CB SHRA DSNT W-N MOVG E P0000 60004 T02280206 56024

METARs EXPIRÉS :
  • 020753Z 14008KT 10SM BKN047 OVC110 23/21 A2996 RMK AO2 RAB04E29 TSB13E53 SLP130 CB SHRA VC N-NE MOVG NE P0004 T02280211
  • 020714Z 14007KT 5SM +TSRA BR FEW031 BKN047CB OVC110 23/21 A2998 RMK AO2 RAB04 TSB13 OCNL LTGICCG OHD TS OHD-SW MOVG NE P0003 T02280211
  • 020653Z 14011KT 10SM FEW031 BKN065 OVC080 23/21 A2998 RMK AO2 SLP139 OCNL LTGICCG VC SW CB SHRA VC SW MOVG NE T02330206

TAF KICT
Valide du 02 à 09h jusqu'au 03 à 06h UTC


020844Z 0209/0306 13007KT P6SM VCTS SCT035 BKN050 OVC100CB
FM020930 VRB20KT 3SM +TSRA BKN015 OVC035CB
FM021100 18010KT P6SM VCSH BKN050 BKN100
FM021700 18017G23KT P6SM SCT250
FIR KZKC / Amérique du Nord



MET'MAP, la Météo Aéronautique d'un coup d'oeil ! - Copyright ORBIFLY Décembre 2007 - Disclaimer

ORBIFLY MET'MAP TEAM :

Programmation & Développement : Alexandra Zaïnal
Conception & Développement : Baudouin d'Aumeries
Co-Programmation & Développement : Marc-Olivier Méhu
Soutien technique & logistique : Manuel Goepfert

Contact : metmap@orbifly.com




SOURCES & CREDITS :

   NOAA       Earth
Advisory